Time;durP1;ratioP1;P1;durP2;ratioP2;P2;SDS_P1;SDS_P2;PMS_P1;PMS_P2;Temp;Humidity;BMP_temperature;BMP_pressure;BME280_temperature;BME280_humidity;BME280_pressure;Samples;Min_cycle;Max_cycle;Signal;HPM_P1;HPM_P2
2022/09/03 00:01:57;;;;;;;3.95;2.00;;;16.80;85.90;;;;;;5095500;28;20028;-68
2022/09/03 00:04:57;;;;;;;6.30;2.10;;;16.90;85.90;;;;;;5098033;28;20071;-66
2022/09/03 00:07:36;;;;;;;4.88;2.10;;;16.90;86.00;;;;;;5098625;28;20325;-68
2022/09/03 00:10:07;;;;;;;4.20;2.35;;;16.90;86.10;;;;;;5094011;28;20085;-67
2022/09/03 00:12:38;;;;;;;5.70;2.33;;;16.90;86.20;;;;;;5095232;28;20323;-67
2022/09/03 00:15:11;;;;;;;6.05;2.33;;;17.00;86.10;;;;;;5095048;28;20034;-68
2022/09/03 00:17:43;;;;;;;7.10;2.30;;;16.90;85.90;;;;;;5070787;28;20078;-67
2022/09/03 00:20:22;;;;;;;4.38;2.22;;;16.90;85.80;;;;;;5096076;28;20258;-67
2022/09/03 00:22:52;;;;;;;5.85;2.50;;;16.90;86.20;;;;;;5096525;28;20444;-67
2022/09/03 00:25:40;;;;;;;5.22;2.42;;;16.80;86.10;;;;;;5075340;28;20325;-68
2022/09/03 00:28:24;;;;;;;5.85;2.40;;;16.80;86.30;;;;;;5094672;28;20032;-67
2022/09/03 00:30:58;;;;;;;8.68;2.47;;;16.80;87.00;;;;;;5094610;28;20425;-67
2022/09/03 00:33:28;;;;;;;4.47;2.50;;;16.80;86.70;;;;;;5093556;28;20056;-67
2022/09/03 00:36:09;;;;;;;9.68;2.85;;;16.70;87.20;;;;;;5094261;28;20028;-67
2022/09/03 00:38:36;;;;;;;5.78;2.42;;;16.80;87.00;;;;;;5094710;28;20020;-67
2022/09/03 00:41:16;;;;;;;4.50;2.50;;;16.80;86.90;;;;;;5093145;28;20040;-67
2022/09/03 00:44:05;;;;;;;4.63;2.30;;;16.70;87.60;;;;;;5110229;28;20059;-67
2022/09/03 00:46:49;;;;;;;6.10;2.50;;;16.70;87.80;;;;;;5094695;28;20095;-67
2022/09/03 00:49:43;;;;;;;6.65;2.53;;;16.70;88.00;;;;;;5094301;28;20107;-67
2022/09/03 00:52:31;;;;;;;5.65;2.50;;;16.70;88.20;;;;;;5100278;28;20035;-67
2022/09/03 00:55:01;;;;;;;10.02;3.72;;;16.60;88.10;;;;;;5101340;28;20424;-67
2022/09/03 00:58:02;;;;;;;4.88;2.42;;;16.60;88.60;;;;;;5094834;28;20038;-67
2022/09/03 01:00:31;;;;;;;5.43;2.67;;;16.60;89.10;;;;;;5050731;28;20082;-68
2022/09/03 01:03:09;;;;;;;4.97;2.97;;;16.50;89.30;;;;;;5093702;28;20055;-67
2022/09/03 01:05:35;;;;;;;5.22;2.90;;;16.50;89.70;;;;;;5101253;28;20055;-67
2022/09/03 01:08:13;;;;;;;8.02;2.80;;;16.40;90.10;;;;;;5112360;28;20063;-67
2022/09/03 01:10:44;;;;;;;8.13;2.80;;;16.40;90.00;;;;;;5114197;28;20027;-68
2022/09/03 01:13:41;;;;;;;4.82;2.90;;;16.40;89.60;;;;;;5098933;28;20024;-67
2022/09/03 01:16:25;;;;;;;5.07;2.92;;;16.30;90.00;;;;;;5098305;28;20028;-67
2022/09/03 01:19:30;;;;;;;4.65;2.72;;;16.30;90.30;;;;;;5098863;28;20020;-66
2022/09/03 01:22:19;;;;;;;5.95;2.88;;;16.20;90.90;;;;;;5087174;28;20038;-67
2022/09/03 01:25:21;;;;;;;5.85;3.13;;;16.10;91.40;;;;;;5107874;28;20023;-67
2022/09/03 01:28:01;;;;;;;5.80;2.90;;;16.20;92.00;;;;;;5096234;28;20055;-68
2022/09/03 01:30:32;;;;;;;5.38;3.08;;;16.10;91.60;;;;;;5107198;28;20100;-67
2022/09/03 01:33:03;;;;;;;5.35;2.90;;;16.10;92.00;;;;;;5087023;28;20035;-68
2022/09/03 01:35:52;;;;;;;6.90;3.03;;;16.10;91.80;;;;;;5105690;28;20078;-66
2022/09/03 01:38:36;;;;;;;6.43;2.92;;;16.10;91.60;;;;;;5106962;28;20497;-66
2022/09/03 01:44:20;;;;;;;5.60;2.83;;;16.00;92.00;;;;;;5115668;28;20038;-66
2022/09/03 01:46:55;;;;;;;6.20;3.10;;;16.00;92.10;;;;;;5107528;28;20023;-67
2022/09/03 01:49:24;;;;;;;4.57;2.78;;;16.00;92.20;;;;;;5118599;28;20031;-67
2022/09/03 01:52:19;;;;;;;6.93;3.75;;;16.00;92.30;;;;;;5099100;28;20028;-66
2022/09/03 01:55:00;;;;;;;7.35;3.45;;;16.20;91.90;;;;;;5080381;28;20123;-67
2022/09/03 01:58:05;;;;;;;7.10;3.70;;;16.30;91.60;;;;;;5116414;28;20031;-67
2022/09/03 02:00:33;;;;;;;9.57;4.07;;;16.40;91.00;;;;;;5092799;28;20490;-67
2022/09/03 02:03:05;;;;;;;5.20;3.63;;;16.40;91.20;;;;;;5117244;28;20080;-67
2022/09/03 02:05:32;;;;;;;8.85;4.28;;;16.30;91.60;;;;;;5110672;28;20039;-67
2022/09/03 02:08:00;;;;;;;6.88;4.05;;;16.30;91.40;;;;;;5118836;28;20538;-67
2022/09/03 02:10:48;;;;;;;6.35;3.70;;;16.20;91.50;;;;;;5098317;28;20435;-67
2022/09/03 02:13:33;;;;;;;5.82;3.90;;;16.20;91.70;;;;;;5107902;28;20055;-68
2022/09/03 02:16:02;;;;;;;8.65;4.47;;;16.20;91.70;;;;;;5117093;28;20026;-67
2022/09/03 02:18:32;;;;;;;6.20;4.05;;;16.10;92.20;;;;;;5104792;28;20027;-67
2022/09/03 02:20:59;;;;;;;8.18;3.83;;;16.10;92.20;;;;;;5116718;28;20028;-67
2022/09/03 02:23:26;;;;;;;7.65;4.22;;;16.10;92.70;;;;;;5101284;28;20024;-67
2022/09/03 02:25:55;;;;;;;9.30;4.60;;;16.00;92.90;;;;;;5110433;28;20027;-67
2022/09/03 02:28:22;;;;;;;9.02;4.60;;;15.90;93.20;;;;;;5104708;28;20054;-67
2022/09/03 02:30:47;;;;;;;10.85;4.82;;;15.90;93.50;;;;;;5098960;28;20040;-67
2022/09/03 02:33:14;;;;;;;7.72;4.85;;;15.90;93.40;;;;;;5102868;28;20412;-67
2022/09/03 02:35:43;;;;;;;6.45;4.13;;;15.90;93.50;;;;;;5106161;28;20023;-67
2022/09/03 02:38:18;;;;;;;9.00;4.40;;;16.00;93.50;;;;;;5102837;28;20024;-67
2022/09/03 02:40:44;;;;;;;7.20;4.65;;;16.00;93.20;;;;;;5101316;28;20085;-67
2022/09/03 02:43:34;;;;;;;6.15;4.28;;;16.10;93.20;;;;;;5109630;28;20043;-67
2022/09/03 02:46:05;;;;;;;6.95;4.25;;;16.10;93.00;;;;;;5116222;28;20028;-67
2022/09/03 02:48:31;;;;;;;9.73;4.68;;;16.10;93.10;;;;;;5104141;28;20100;-67
2022/09/03 02:50:57;;;;;;;6.10;3.90;;;16.20;93.00;;;;;;5110804;28;20459;-67
2022/09/03 02:53:27;;;;;;;8.77;4.38;;;16.30;92.20;;;;;;5106443;28;20028;-68
2022/09/03 02:55:56;;;;;;;7.03;4.00;;;16.40;92.20;;;;;;5107826;28;20069;-66
2022/09/03 02:58:21;;;;;;;7.57;4.13;;;16.50;92.10;;;;;;5104825;28;20412;-67
2022/09/03 03:00:48;;;;;;;5.13;3.60;;;16.50;91.60;;;;;;5110074;28;20034;-67
2022/09/03 03:03:13;;;;;;;6.88;4.00;;;16.60;91.80;;;;;;5109171;28;20028;-67
2022/09/03 03:05:51;;;;;;;5.82;3.58;;;16.50;92.00;;;;;;5094499;28;20081;-67
2022/09/03 03:08:20;;;;;;;5.00;3.40;;;16.50;92.20;;;;;;5098036;28;20073;-67
2022/09/03 03:10:50;;;;;;;5.50;3.58;;;16.50;91.90;;;;;;5107487;28;20020;-67
2022/09/03 03:13:17;;;;;;;6.13;4.10;;;16.50;91.70;;;;;;5095904;28;20459;-67
2022/09/03 03:15:43;;;;;;;5.75;3.50;;;16.60;91.80;;;;;;5095861;28;20421;-68
2022/09/03 03:18:13;;;;;;;7.03;3.80;;;16.50;91.90;;;;;;5108239;28;20019;-67
2022/09/03 03:20:39;;;;;;;6.03;3.70;;;16.50;92.10;;;;;;5114103;28;20020;-67
2022/09/03 03:23:05;;;;;;;6.60;3.17;;;16.50;92.20;;;;;;5101644;28;20027;-69
2022/09/03 03:25:34;;;;;;;5.22;3.22;;;16.50;92.10;;;;;;5114566;28;20034;-67
2022/09/03 03:28:00;;;;;;;4.95;3.30;;;16.50;92.30;;;;;;5113910;28;20098;-66
2022/09/03 03:30:27;;;;;;;8.80;3.65;;;16.50;92.30;;;;;;5114073;28;20020;-67
2022/09/03 03:32:53;;;;;;;5.43;3.00;;;16.60;92.20;;;;;;5101824;28;20032;-67
2022/09/03 03:35:19;;;;;;;5.55;3.35;;;16.60;92.10;;;;;;5089755;28;20056;-67
2022/09/03 03:37:45;;;;;;;6.75;3.50;;;16.70;92.10;;;;;;5086325;28;20081;-67
2022/09/03 03:40:11;;;;;;;5.50;3.30;;;16.80;91.90;;;;;;5094204;28;20039;-67
2022/09/03 03:42:37;;;;;;;7.28;3.55;;;16.80;91.70;;;;;;5096558;28;20032;-67
2022/09/03 03:45:05;;;;;;;6.82;3.10;;;16.80;91.80;;;;;;5094456;28;20027;-66
2022/09/03 03:47:31;;;;;;;6.38;3.47;;;16.80;92.00;;;;;;5082637;28;20031;-67
2022/09/03 03:49:57;;;;;;;5.35;3.10;;;16.80;92.10;;;;;;5110380;28;20023;-67
2022/09/03 03:52:24;;;;;;;5.32;3.22;;;16.90;92.40;;;;;;5104420;28;20443;-67
2022/09/03 03:54:50;;;;;;;5.10;3.40;;;16.90;92.50;;;;;;5093954;28;20055;-67
2022/09/03 03:57:18;;;;;;;6.03;3.25;;;16.90;92.60;;;;;;5104633;28;20074;-67
2022/09/03 03:59:44;;;;;;;7.07;3.50;;;16.90;92.80;;;;;;5094717;28;20103;-67
2022/09/03 04:02:12;;;;;;;6.63;3.60;;;16.90;92.90;;;;;;5097488;28;20115;-67
2022/09/03 04:04:38;;;;;;;6.97;3.60;;;17.00;92.80;;;;;;5094287;28;20031;-67
2022/09/03 04:07:04;;;;;;;5.53;3.40;;;17.00;92.80;;;;;;5093513;28;20480;-68
2022/09/03 04:09:30;;;;;;;5.97;3.53;;;17.00;92.90;;;;;;5094111;28;20328;-67
2022/09/03 04:11:56;;;;;;;5.95;3.60;;;17.10;93.00;;;;;;5087849;28;20036;-67
2022/09/03 04:14:23;;;;;;;6.05;3.53;;;17.10;93.10;;;;;;5096213;28;20040;-67
2022/09/03 04:16:49;;;;;;;7.15;3.45;;;17.00;93.30;;;;;;5087226;28;20428;-67
2022/09/03 04:19:16;;;;;;;5.95;3.60;;;17.00;93.20;;;;;;5094744;28;20024;-67
2022/09/03 04:21:42;;;;;;;5.07;3.28;;;17.10;93.40;;;;;;5088477;28;20028;-67
2022/09/03 04:24:09;;;;;;;5.75;3.50;;;17.00;93.60;;;;;;5094056;28;20028;-67
2022/09/03 04:26:38;;;;;;;6.28;3.60;;;17.00;93.80;;;;;;5089878;28;20020;-68
2022/09/03 04:29:07;;;;;;;5.65;3.53;;;16.90;94.10;;;;;;5094008;28;20091;-67
2022/09/03 04:31:33;;;;;;;7.75;4.22;;;16.90;94.10;;;;;;5093365;28;20028;-66
2022/09/03 04:33:59;;;;;;;6.25;3.67;;;16.90;94.20;;;;;;5095167;28;20085;-66
2022/09/03 04:36:27;;;;;;;5.53;3.60;;;16.90;94.40;;;;;;5093549;28;20032;-66
2022/09/03 04:38:54;;;;;;;6.07;3.65;;;16.90;94.10;;;;;;5094711;28;20036;-66
2022/09/03 04:41:27;;;;;;;5.65;3.38;;;16.90;94.40;;;;;;5093184;28;20370;-66
2022/09/03 04:43:55;;;;;;;5.60;3.35;;;16.90;94.40;;;;;;5091000;28;20028;-68
2022/09/03 04:46:24;;;;;;;5.88;3.40;;;16.80;94.40;;;;;;5094132;28;20324;-67
2022/09/03 04:48:52;;;;;;;6.68;3.33;;;16.80;94.80;;;;;;5097295;28;20028;-67
2022/09/03 04:51:20;;;;;;;6.75;3.50;;;16.80;94.60;;;;;;5086349;28;20115;-68
2022/09/03 04:53:48;;;;;;;5.50;3.30;;;16.80;94.90;;;;;;5094624;28;20052;-67
2022/09/03 04:56:23;;;;;;;5.13;3.33;;;16.70;95.10;;;;;;5092655;28;20359;-67
2022/09/03 04:58:57;;;;;;;4.85;3.50;;;16.70;95.40;;;;;;5097314;28;20031;-67
2022/09/03 05:01:25;;;;;;;6.35;3.53;;;16.70;95.30;;;;;;5094544;28;20027;-68
2022/09/03 05:03:51;;;;;;;7.10;3.67;;;16.60;95.30;;;;;;5109164;28;20023;-67
2022/09/03 05:06:18;;;;;;;5.72;3.55;;;16.60;95.40;;;;;;5116683;28;20039;-67
2022/09/03 05:08:47;;;;;;;6.50;3.72;;;16.60;95.50;;;;;;5111548;28;20032;-67
2022/09/03 05:11:13;;;;;;;4.97;3.38;;;16.60;95.30;;;;;;5117949;28;20024;-67
2022/09/03 05:13:39;;;;;;;8.23;3.58;;;16.60;95.30;;;;;;5118318;28;20035;-67
2022/09/03 05:16:07;;;;;;;4.72;3.15;;;16.70;94.90;;;;;;5113186;28;20092;-68
2022/09/03 05:18:34;;;;;;;4.80;3.00;;;16.80;94.60;;;;;;5110689;28;20345;-67
2022/09/03 05:21:11;;;;;;;7.70;3.10;;;16.80;94.60;;;;;;5099430;28;20347;-67
2022/09/03 05:23:42;;;;;;;4.72;2.90;;;16.80;94.40;;;;;;5115921;28;20328;-67
2022/09/03 05:26:11;;;;;;;5.10;2.45;;;16.90;93.70;;;;;;5111592;28;20027;-67
2022/09/03 05:28:39;;;;;;;5.10;2.92;;;17.00;93.50;;;;;;5099143;28;20075;-67
2022/09/03 05:31:10;;;;;;;6.53;3.08;;;17.00;93.40;;;;;;5114814;27;20019;-67
2022/09/03 05:33:43;;;;;;;5.93;2.40;;;17.00;93.40;;;;;;5108534;28;20480;-68
2022/09/03 05:36:21;;;;;;;4.15;2.63;;;17.10;92.60;;;;;;5112710;28;20161;-67
2022/09/03 05:38:47;;;;;;;4.32;2.20;;;17.20;92.10;;;;;;5113839;28;20027;-67
2022/09/03 05:41:15;;;;;;;6.05;2.63;;;17.20;91.50;;;;;;5113042;28;20046;-67
2022/09/03 05:43:42;;;;;;;3.90;2.25;;;17.40;91.20;;;;;;5108107;28;20024;-67
2022/09/03 05:46:16;;;;;;;3.85;2.40;;;17.40;91.30;;;;;;5117153;28;20030;-66
2022/09/03 05:48:42;;;;;;;4.80;2.40;;;17.50;91.00;;;;;;5107278;28;20335;-68
2022/09/03 05:51:15;;;;;;;6.15;2.60;;;17.50;91.00;;;;;;5111830;27;20044;-68
2022/09/03 05:53:43;;;;;;;3.67;2.20;;;17.60;91.00;;;;;;5097927;28;20542;-68
2022/09/03 05:56:11;;;;;;;5.20;2.60;;;17.60;90.60;;;;;;5117378;28;20039;-68
2022/09/03 05:58:41;;;;;;;4.47;2.40;;;17.70;90.30;;;;;;5115495;28;20051;-68
2022/09/03 06:01:19;;;;;;;6.32;2.25;;;17.80;90.10;;;;;;5106346;28;20111;-68
2022/09/03 06:03:47;;;;;;;4.25;2.40;;;17.90;89.80;;;;;;5117608;28;20024;-67
2022/09/03 06:06:14;;;;;;;4.68;2.55;;;18.00;89.90;;;;;;5117309;28;20079;-68
2022/09/03 06:08:41;;;;;;;4.40;2.50;;;18.00;89.80;;;;;;5115981;27;20102;-67
2022/09/03 06:11:07;;;;;;;5.38;2.50;;;18.00;89.90;;;;;;5122898;27;20032;-67
2022/09/03 06:13:34;;;;;;;5.50;2.40;;;18.10;89.90;;;;;;5118649;28;20038;-68
2022/09/03 06:16:03;;;;;;;4.70;2.50;;;18.10;90.00;;;;;;5116354;27;20023;-68
2022/09/03 06:18:30;;;;;;;3.85;2.30;;;18.20;90.40;;;;;;5119941;27;20023;-67
2022/09/03 06:21:00;;;;;;;5.40;2.42;;;18.20;90.40;;;;;;5131998;27;20372;-67
2022/09/03 06:23:27;;;;;;;5.00;2.40;;;18.30;89.80;;;;;;5113581;28;20023;-67
2022/09/03 06:26:06;;;;;;;5.88;2.58;;;18.30;90.60;;;;;;5110627;28;20019;-67
2022/09/03 06:28:34;;;;;;;4.72;2.65;;;18.40;89.60;;;;;;5127653;27;20027;-67
2022/09/03 06:31:01;;;;;;;5.57;2.72;;;18.60;89.70;;;;;;5137104;27;20031;-67
2022/09/03 06:33:29;;;;;;;5.85;2.20;;;18.70;89.40;;;;;;5125308;27;20037;-66
2022/09/03 06:35:56;;;;;;;5.75;2.47;;;18.70;88.80;;;;;;5113278;28;20159;-67
2022/09/03 06:38:24;;;;;;;4.45;2.28;;;18.80;89.20;;;;;;5119102;27;20080;-67
2022/09/03 06:41:02;;;;;;;3.83;2.20;;;18.90;88.70;;;;;;5117987;27;20083;-67
2022/09/03 06:43:32;;;;;;;3.80;2.35;;;19.00;88.80;;;;;;5127417;27;20019;-68
2022/09/03 06:46:02;;;;;;;5.18;2.60;;;18.90;88.80;;;;;;5116072;28;20024;-67
2022/09/03 06:48:31;;;;;;;5.78;2.58;;;18.90;89.80;;;;;;5117226;28;20471;-67
2022/09/03 06:50:57;;;;;;;3.88;2.05;;;18.80;89.50;;;;;;5115338;28;20413;-67
2022/09/03 06:53:34;;;;;;;4.65;2.53;;;18.70;90.50;;;;;;5116628;27;20030;-66
2022/09/03 06:56:05;;;;;;;5.00;2.70;;;18.70;89.60;;;;;;5116092;28;20024;-67
2022/09/03 06:58:36;;;;;;;5.28;2.70;;;18.70;89.90;;;;;;5116068;28;20056;-67
2022/09/03 07:01:11;;;;;;;3.80;2.38;;;18.80;90.40;;;;;;5114941;27;20027;-67
2022/09/03 07:03:38;;;;;;;4.85;2.50;;;18.90;89.00;;;;;;5116373;28;20055;-67
2022/09/03 07:06:07;;;;;;;6.55;2.90;;;19.10;89.50;;;;;;5116618;28;20092;-67
2022/09/03 07:08:33;;;;;;;5.63;2.60;;;19.10;89.70;;;;;;5115169;28;20039;-67
2022/09/03 07:11:07;;;;;;;4.43;2.60;;;19.10;89.50;;;;;;5111946;28;20024;-67
2022/09/03 07:13:43;;;;;;;4.55;2.47;;;19.10;89.70;;;;;;5099950;27;20076;-67
2022/09/03 07:16:11;;;;;;;4.15;2.47;;;19.10;90.40;;;;;;5083483;27;20117;-67
2022/09/03 07:18:39;;;;;;;5.78;2.75;;;19.20;90.10;;;;;;5088515;27;20028;-67
2022/09/03 07:21:10;;;;;;;4.40;2.33;;;19.30;89.40;;;;;;5099194;28;20066;-67
2022/09/03 07:23:37;;;;;;;4.15;2.40;;;19.30;89.20;;;;;;5096212;27;20301;-67
2022/09/03 07:26:08;;;;;;;6.18;3.08;;;19.30;90.10;;;;;;5102191;27;20070;-66
2022/09/03 07:28:36;;;;;;;4.80;2.90;;;19.20;90.10;;;;;;5100409;27;20018;-66
2022/09/03 07:31:10;;;;;;;4.30;2.80;;;19.20;90.10;;;;;;5114810;27;20023;-66
2022/09/03 07:33:37;;;;;;;3.92;2.35;;;19.30;90.70;;;;;;5118500;27;20028;-66
2022/09/03 07:36:05;;;;;;;5.07;2.30;;;19.20;90.40;;;;;;5119999;27;20028;-66
2022/09/03 07:38:35;;;;;;;5.00;2.55;;;19.20;89.90;;;;;;5088318;28;20035;-67
2022/09/03 07:41:03;;;;;;;6.50;2.60;;;19.20;89.60;;;;;;5092890;28;20585;-67
2022/09/03 07:43:40;;;;;;;4.55;2.30;;;19.20;89.40;;;;;;5092441;27;20067;-67
2022/09/03 07:46:07;;;;;;;4.55;2.42;;;19.20;89.90;;;;;;5093178;28;20031;-67
2022/09/03 07:48:34;;;;;;;3.83;2.10;;;19.10;89.80;;;;;;5105286;27;20344;-67
2022/09/03 07:51:07;;;;;;;4.38;2.33;;;19.10;90.50;;;;;;5109512;28;21704;-67
2022/09/03 07:53:33;;;;;;;4.68;2.10;;;19.10;90.20;;;;;;5105474;28;20023;-67
2022/09/03 07:56:07;;;;;;;3.67;2.10;;;19.30;89.50;;;;;;5104306;27;20028;-67
2022/09/03 07:58:34;;;;;;;4.15;1.90;;;19.40;89.80;;;;;;5111001;28;20099;-68
2022/09/03 08:01:07;;;;;;;4.55;2.05;;;19.90;87.30;;;;;;5111221;28;20121;-67
2022/09/03 08:03:36;;;;;;;3.42;1.80;;;20.30;87.30;;;;;;5116337;27;20023;-66
2022/09/03 08:06:04;;;;;;;2.63;1.20;;;20.90;84.00;;;;;;5112531;28;20373;-68
2022/09/03 08:08:31;;;;;;;3.33;1.23;;;20.90;81.60;;;;;;5108372;28;20012;-67
2022/09/03 08:11:06;;;;;;;3.50;1.75;;;20.90;80.90;;;;;;5113029;28;20028;-66
2022/09/03 08:13:33;;;;;;;2.78;1.45;;;20.60;81.70;;;;;;5113063;28;20023;-67
2022/09/03 08:16:00;;;;;;;2.58;1.30;;;20.30;83.40;;;;;;5116411;27;20072;-67
2022/09/03 08:18:26;;;;;;;2.75;1.50;;;20.00;82.50;;;;;;5116460;27;20026;-67
2022/09/03 08:20:51;;;;;;;3.10;1.30;;;19.90;83.20;;;;;;5113979;28;20412;-65
2022/09/03 08:23:17;;;;;;;4.22;1.23;;;19.70;83.00;;;;;;5111278;28;20024;-67
2022/09/03 08:25:43;;;;;;;2.72;1.25;;;19.60;83.60;;;;;;5112195;28;20015;-67
2022/09/03 08:28:09;;;;;;;3.00;1.23;;;19.70;84.70;;;;;;5122952;27;20027;-67
2022/09/03 08:30:35;;;;;;;2.95;1.38;;;20.20;84.20;;;;;;5115791;28;20031;-67
2022/09/03 08:33:03;;;;;;;2.58;1.10;;;21.60;81.00;;;;;;5113728;28;20443;-67
2022/09/03 08:35:30;;;;;;;2.17;1.20;;;23.30;75.80;;;;;;5118338;28;20110;-67
2022/09/03 08:37:56;;;;;;;2.20;1.17;;;25.30;70.70;;;;;;5107847;28;20061;-65
2022/09/03 08:40:23;;;;;;;1.75;0.95;;;26.80;68.10;;;;;;5112243;28;20432;-66
2022/09/03 08:43:07;;;;;;;2.63;1.17;;;26.40;65.70;;;;;;5116378;28;20044;-67
2022/09/03 08:45:35;;;;;;;3.10;1.10;;;25.60;67.50;;;;;;5128193;28;20023;-67
2022/09/03 08:48:08;;;;;;;2.33;0.90;;;25.90;67.60;;;;;;5117493;28;20031;-66
2022/09/03 08:50:44;;;;;;;4.43;1.10;;;27.30;66.10;;;;;;5111487;28;20408;-66
2022/09/03 08:53:27;;;;;;;3.20;1.17;;;28.00;63.70;;;;;;5114826;28;20024;-65
2022/09/03 08:56:20;;;;;;;2.47;1.20;;;27.00;65.10;;;;;;5110523;28;20022;-66
2022/09/03 08:58:48;;;;;;;2.45;1.20;;;25.90;67.80;;;;;;5110727;28;20473;-66
2022/09/03 09:01:23;;;;;;;3.42;1.08;;;25.90;68.10;;;;;;5110176;28;20055;-66
2022/09/03 09:04:01;;;;;;;2.65;1.17;;;26.70;66.70;;;;;;5117772;28;20057;-66
2022/09/03 09:06:32;;;;;;;3.00;1.40;;;26.70;66.60;;;;;;5097321;28;20109;-66
2022/09/03 09:09:23;;;;;;;2.60;1.30;;;26.80;67.00;;;;;;5093052;28;20028;-65
2022/09/03 09:12:10;;;;;;;2.58;1.40;;;26.30;67.20;;;;;;5093085;28;20028;-66
2022/09/03 09:14:42;;;;;;;4.18;1.65;;;25.00;69.70;;;;;;5092670;28;20103;-65
2022/09/03 09:17:22;;;;;;;3.10;1.30;;;23.80;72.40;;;;;;5095731;28;20032;-64
2022/09/03 09:20:16;;;;;;;2.95;1.40;;;23.40;73.80;;;;;;5088282;28;20032;-66
2022/09/03 09:22:53;;;;;;;1.90;1.20;;;23.60;73.30;;;;;;5062197;28;20105;-66
2022/09/03 09:25:23;;;;;;;5.95;1.90;;;23.70;73.00;;;;;;5079221;28;20027;-66
2022/09/03 09:27:59;;;;;;;2.95;1.50;;;23.50;73.70;;;;;;5084191;28;20026;-66
2022/09/03 09:30:26;;;;;;;5.18;1.80;;;23.20;74.70;;;;;;5088775;28;20020;-65
2022/09/03 09:32:55;;;;;;;3.00;1.60;;;22.70;75.40;;;;;;5110964;28;20350;-65
2022/09/03 09:35:21;;;;;;;3.42;1.73;;;22.80;76.60;;;;;;5097896;28;20028;-66
2022/09/03 09:37:49;;;;;;;4.30;1.90;;;23.10;75.30;;;;;;5078346;28;20115;-66
2022/09/03 09:40:31;;;;;;;3.53;1.95;;;23.60;74.50;;;;;;5109367;28;20435;-66
2022/09/03 09:43:05;;;;;;;3.50;2.00;;;23.90;73.90;;;;;;5098239;28;20036;-67
2022/09/03 09:45:33;;;;;;;3.00;1.80;;;23.80;73.30;;;;;;5096826;28;20446;-66
2022/09/03 09:48:02;;;;;;;3.22;1.90;;;24.40;73.00;;;;;;5094691;28;20028;-66
2022/09/03 09:50:28;;;;;;;3.47;1.70;;;25.10;71.70;;;;;;5095195;28;20024;-66
2022/09/03 09:53:13;;;;;;;3.35;1.95;;;25.60;70.20;;;;;;5085082;28;20040;-67
2022/09/03 09:55:51;;;;;;;3.72;1.70;;;25.10;71.30;;;;;;5092938;28;20040;-67
2022/09/03 09:58:29;;;;;;;4.18;1.92;;;24.40;73.30;;;;;;5092091;28;20031;-66
2022/09/03 10:01:12;;;;;;;4.57;1.70;;;23.60;75.60;;;;;;5089004;28;20040;-64
2022/09/03 10:03:48;;;;;;;3.85;1.77;;;23.00;76.90;;;;;;5091946;28;20025;-66
2022/09/03 10:09:16;;;;;;;3.80;2.05;;;23.00;77.50;;;;;;5109117;28;20517;-66
2022/09/03 10:12:03;;;;;;;5.05;2.78;;;23.40;75.80;;;;;;5114153;28;20101;-65
2022/09/03 10:14:48;;;;;;;4.25;1.90;;;24.30;74.80;;;;;;5113499;28;20028;-67
2022/09/03 10:17:31;;;;;;;3.88;1.73;;;25.80;70.50;;;;;;5109668;27;20036;-66
2022/09/03 10:20:26;;;;;;;5.03;1.70;;;26.70;69.70;;;;;;5111596;27;20229;-65
2022/09/03 10:22:57;;;;;;;3.25;1.70;;;26.70;68.60;;;;;;5111628;28;20040;-65
2022/09/03 10:25:28;;;;;;;3.05;1.70;;;25.90;69.60;;;;;;5096052;28;20041;-66
2022/09/03 10:27:55;;;;;;;4.25;1.90;;;25.10;71.90;;;;;;5112880;28;20027;-66
2022/09/03 10:30:21;;;;;;;4.85;1.85;;;25.00;72.80;;;;;;5110900;28;20067;-66
2022/09/03 10:33:34;;;;;;;6.32;2.05;;;25.10;72.40;;;;;;5093596;28;20031;-66
2022/09/03 10:36:15;;;;;;;3.53;1.92;;;25.40;71.70;;;;;;5089513;28;20036;-65
2022/09/03 10:38:47;;;;;;;4.90;1.83;;;24.90;72.00;;;;;;5092423;28;20102;-65
2022/09/03 10:41:39;;;;;;;4.18;2.10;;;24.60;72.90;;;;;;5107549;28;20127;-67
2022/09/03 10:44:45;;;;;;;3.70;1.98;;;24.70;72.70;;;;;;5114385;28;20171;-66
2022/09/03 10:47:28;;;;;;;3.63;2.10;;;25.20;72.20;;;;;;5081658;28;20061;-66
2022/09/03 10:50:15;;;;;;;5.43;2.10;;;25.10;72.80;;;;;;5107106;28;20024;-66
2022/09/03 10:53:14;;;;;;;5.55;2.00;;;24.70;73.80;;;;;;5096116;28;20067;-67
2022/09/03 10:55:47;;;;;;;6.45;2.50;;;24.30;74.60;;;;;;5113031;28;20027;-66
2022/09/03 10:58:19;;;;;;;3.65;2.05;;;23.60;76.50;;;;;;5116472;28;20489;-70
2022/09/03 11:00:57;;;;;;;4.18;2.08;;;23.00;77.80;;;;;;5098186;28;20040;-65
2022/09/03 11:03:34;;;;;;;7.32;2.90;;;22.50;80.20;;;;;;5119534;27;20019;-67
2022/09/03 11:06:10;;;;;;;9.85;3.20;;;21.80;84.90;;;;;;5125276;27;20063;-67
2022/09/03 11:08:56;;;;;;;6.65;3.63;;;20.70;89.80;;;;;;5106574;28;20513;-67
2022/09/03 11:11:45;;;;;;;7.18;3.80;;;19.60;94.00;;;;;;5102302;28;20016;-66
2022/09/03 11:14:39;;;;;;;9.32;4.15;;;18.90;95.40;;;;;;5127706;27;20458;-67
2022/09/03 11:17:19;;;;;;;7.83;4.10;;;18.70;94.60;;;;;;5132887;27;20091;-66
2022/09/03 11:20:12;;;;;;;7.47;3.83;;;18.40;94.90;;;;;;5119160;27;20027;-68
2022/09/03 11:22:40;;;;;;;8.45;4.60;;;18.20;96.30;;;;;;5088064;27;20039;-67
2022/09/03 11:25:09;;;;;;;9.23;4.95;;;17.90;93.90;;;;;;5103302;28;20031;-67
2022/09/03 11:27:40;;;;;;;6.97;5.60;;;17.80;91.50;;;;;;5096447;28;20020;-68
2022/09/03 11:30:10;;;;;;;9.98;4.82;;;17.60;90.30;;;;;;5104601;28;20020;-68
2022/09/03 11:32:52;;;;;;;13.25;4.18;;;17.30;92.50;;;;;;5104890;28;20038;-71
2022/09/03 11:35:33;;;;;;;8.05;2.45;;;16.40;97.30;;;;;;5079959;28;20093;-71
2022/09/03 11:37:59;;;;;;;5.63;1.75;;;15.40;95.10;;;;;;5095785;28;20351;-73
2022/09/03 11:40:31;;;;;;;5.07;2.35;;;14.90;93.90;;;;;;5091085;28;20027;-71
2022/09/03 11:43:34;;;;;;;5.43;2.00;;;14.70;95.00;;;;;;5095004;28;20031;-71
2022/09/03 11:46:13;;;;;;;3.47;1.67;;;14.40;92.40;;;;;;5084589;28;20032;-71
2022/09/03 11:48:39;;;;;;;5.03;1.75;;;14.10;92.30;;;;;;5115705;28;20027;-71
2022/09/03 11:51:36;;;;;;;3.17;1.40;;;14.00;91.10;;;;;;5097230;28;20034;-72
2022/09/03 11:54:12;;;;;;;3.65;1.50;;;13.90;92.10;;;;;;5105123;28;20028;-72
2022/09/03 11:56:39;;;;;;;6.20;1.40;;;13.80;90.10;;;;;;5101498;28;20019;-72
2022/09/03 11:59:31;;;;;;;4.82;1.50;;;13.80;89.80;;;;;;5116034;28;20031;-72
2022/09/03 12:02:01;;;;;;;3.55;1.40;;;13.90;88.70;;;;;;5112731;28;20124;-71
2022/09/03 12:04:41;;;;;;;5.03;1.30;;;13.90;88.50;;;;;;5101927;28;20428;-71
2022/09/03 12:07:29;;;;;;;4.13;1.02;;;13.90;87.70;;;;;;5106033;28;20034;-72
2022/09/03 12:10:06;;;;;;;2.63;1.10;;;13.90;88.80;;;;;;5095449;28;20055;-72
2022/09/03 12:12:59;;;;;;;3.38;1.20;;;14.10;87.40;;;;;;5111271;28;20032;-73
2022/09/03 12:15:57;;;;;;;2.95;1.05;;;14.20;86.80;;;;;;5087782;28;20028;-74
2022/09/03 12:18:28;;;;;;;3.80;1.10;;;14.30;88.30;;;;;;5111489;28;20032;-73
2022/09/03 12:20:58;;;;;;;2.47;1.08;;;14.40;90.60;;;;;;5112456;28;20028;-73
2022/09/03 12:23:32;;;;;;;2.63;0.95;;;14.60;91.50;;;;;;5092744;27;20027;-73
2022/09/03 12:26:03;;;;;;;2.45;0.90;;;14.90;87.40;;;;;;5105179;28;20028;-73
2022/09/03 12:28:34;;;;;;;2.03;0.90;;;15.30;88.60;;;;;;5101014;28;20078;-73
2022/09/03 12:31:20;;;;;;;4.45;1.30;;;15.80;87.70;;;;;;5097468;28;20028;-73
2022/09/03 12:34:06;;;;;;;3.17;0.90;;;16.70;85.30;;;;;;5107540;28;20094;-72
2022/09/03 12:36:48;;;;;;;2.05;0.80;;;17.20;96.00;;;;;;5115985;28;20024;-72
2022/09/03 12:39:23;;;;;;;2.17;0.93;;;17.60;94.80;;;;;;5105810;28;20717;-71
2022/09/03 12:42:14;;;;;;;3.40;0.82;;;17.60;94.80;;;;;;5113561;28;20027;-72
2022/09/03 12:44:41;;;;;;;2.45;0.93;;;17.50;94.90;;;;;;5099306;28;20039;-72
2022/09/03 12:47:16;;;;;;;3.08;1.00;;;17.60;96.90;;;;;;5099752;28;20011;-70
2022/09/03 12:49:44;;;;;;;1.50;0.80;;;17.60;96.30;;;;;;5115217;28;20019;-71
2022/09/03 12:52:32;;;;;;;1.98;0.95;;;17.60;98.00;;;;;;5110254;28;20036;-71
2022/09/03 12:55:12;;;;;;;3.75;0.93;;;17.40;97.70;;;;;;5092810;28;20058;-69
2022/09/03 12:58:04;;;;;;;1.50;0.70;;;17.50;97.30;;;;;;5108366;28;20146;-69
2022/09/03 13:00:33;;;;;;;2.55;1.30;;;17.50;97.10;;;;;;5087841;28;20349;-68
2022/09/03 13:03:07;;;;;;;2.70;0.80;;;17.40;97.20;;;;;;5116346;28;20023;-69
2022/09/03 13:05:41;;;;;;;1.67;0.80;;;17.50;97.50;;;;;;5088214;28;20044;-68
2022/09/03 13:08:11;;;;;;;1.85;0.80;;;17.70;97.40;;;;;;5115764;28;20027;-68
2022/09/03 13:10:41;;;;;;;1.63;0.88;;;17.90;97.20;;;;;;5109843;28;20320;-68
2022/09/03 13:13:17;;;;;;;1.45;0.70;;;18.00;96.30;;;;;;5104227;28;20028;-68
2022/09/03 13:16:14;;;;;;;1.98;0.82;;;18.10;96.10;;;;;;5103924;27;20039;-67
2022/09/03 13:19:00;;;;;;;2.58;0.95;;;18.30;96.10;;;;;;5113121;28;20028;-67
2022/09/03 13:21:38;;;;;;;2.75;0.80;;;18.70;96.70;;;;;;5101785;28;20028;-67
2022/09/03 13:24:37;;;;;;;2.55;0.80;;;19.00;94.80;;;;;;5094655;27;20050;-67
2022/09/03 13:27:10;;;;;;;1.98;0.73;;;19.10;97.40;;;;;;5116827;28;20016;-68